Time;durP1;ratioP1;P1;durP2;ratioP2;P2;SDS_P1;SDS_P2;PMS_P1;PMS_P2;Temp;Humidity;BMP_temperature;BMP_pressure;BME280_temperature;BME280_humidity;BME280_pressure;Samples;Min_cycle;Max_cycle;Signal;HPM_P1;HPM_P2
2021/12/18 00:00:28;;;;;;;8.40;5.45;;;;;;;8.31;100.00;103977.91;4880470;29;20104;-47
2021/12/18 00:03:17;;;;;;;7.95;5.35;;;;;;;8.34;100.00;103976.69;4879324;29;20080;-44
2021/12/18 00:06:04;;;;;;;7.75;4.97;;;;;;;8.33;100.00;103980.44;4878029;29;20053;-50
2021/12/18 00:08:52;;;;;;;7.65;4.82;;;;;;;8.31;100.00;103977.91;4878335;29;20204;-48
2021/12/18 00:11:40;;;;;;;7.50;4.82;;;;;;;8.29;100.00;103968.22;4877712;29;20121;-46
2021/12/18 00:14:28;;;;;;;7.07;4.15;;;;;;;8.30;100.00;103975.38;4877741;29;20049;-48
2021/12/18 00:17:16;;;;;;;6.53;4.20;;;;;;;8.30;100.00;103970.78;4878261;29;20053;-48
2021/12/18 00:20:04;;;;;;;5.38;3.70;;;;;;;8.30;100.00;103967.22;4879648;29;20104;-48
2021/12/18 00:22:51;;;;;;;6.32;3.90;;;;;;;8.22;100.00;103967.22;4877289;29;20056;-49
2021/12/18 00:25:39;;;;;;;6.05;3.75;;;;;;;8.25;100.00;103961.44;4879797;29;20064;-48
2021/12/18 00:28:26;;;;;;;6.40;3.90;;;;;;;8.27;100.00;103959.41;4877555;29;20156;-50
2021/12/18 00:31:14;;;;;;;6.38;4.05;;;;;;;8.30;100.00;103959.06;4877152;29;20184;-49
2021/12/18 00:34:02;;;;;;;6.05;3.80;;;;;;;8.32;100.00;103949.72;4863189;29;20060;-47
2021/12/18 00:36:50;;;;;;;6.65;4.38;;;;;;;8.33;100.00;103947.84;4879683;29;20085;-48
2021/12/18 00:39:45;;;;;;;6.20;3.85;;;;;;;8.30;100.00;103948.22;4879975;29;20059;-47
2021/12/18 00:45:23;;;;;;;5.90;4.20;;;;;;;8.32;100.00;103940.69;4877067;29;20049;-47
2021/12/18 00:48:11;;;;;;;6.28;4.20;;;;;;;8.26;100.00;103934.09;4877125;29;20105;-48
2021/12/18 00:50:59;;;;;;;6.55;4.07;;;;;;;8.27;100.00;103937.66;4877113;29;20068;-48
2021/12/18 00:53:51;;;;;;;6.28;4.07;;;;;;;8.29;100.00;103931.03;4858959;29;20524;-49
2021/12/18 00:56:39;;;;;;;6.53;4.10;;;;;;;8.30;100.00;103931.91;4858581;29;20061;-50
2021/12/18 00:59:26;;;;;;;7.28;4.55;;;;;;;8.33;100.00;103928.81;4860974;29;20049;-47
2021/12/18 01:02:14;;;;;;;7.03;4.50;;;;;;;8.33;100.00;103932.38;4874851;29;20105;-48
2021/12/18 01:05:06;;;;;;;6.78;3.95;;;;;;;8.29;100.00;103922.03;4879038;29;20061;-46
2021/12/18 01:07:56;;;;;;;9.43;4.60;;;;;;;8.31;100.00;103929.00;4879133;29;20089;-47
2021/12/18 01:13:37;;;;;;;6.30;4.10;;;;;;;8.31;100.00;103922.72;4858196;29;20078;-46
2021/12/18 01:16:34;;;;;;;6.90;4.50;;;;;;;8.27;100.00;103921.38;4858045;29;20082;-48
2021/12/18 01:25:30;;;;;;;7.45;4.47;;;;;;;8.03;100.00;103925.91;4860320;29;20110;-46
2021/12/18 01:28:18;;;;;;;6.65;4.13;;;;;;;8.08;100.00;103917.19;4858026;29;20123;-47
2021/12/18 01:31:06;;;;;;;7.15;4.60;;;;;;;8.11;100.00;103922.28;4868256;29;20060;-48
2021/12/18 01:33:54;;;;;;;6.53;4.30;;;;;;;8.13;100.00;103924.81;4878967;29;20496;-46
2021/12/18 01:36:43;;;;;;;6.53;4.35;;;;;;;8.14;100.00;103926.53;4878663;29;20365;-47
2021/12/18 01:39:31;;;;;;;8.35;4.75;;;;;;;8.15;100.00;103933.63;4878796;29;20053;-47
2021/12/18 01:54:50;;;;;;;5.55;4.03;;;;;;;8.10;100.00;103948.63;4843142;29;20050;-46
2021/12/18 01:57:38;;;;;;;6.50;4.50;;;;;;;8.16;100.00;103951.66;4843316;29;20071;-47
2021/12/18 02:00:30;;;;;;;7.38;5.10;;;;;;;8.23;100.00;103949.94;4824820;29;20115;-47
2021/12/18 02:03:10;;;;;;;7.05;4.60;;;;;;;8.20;100.00;103942.09;4842641;29;20058;-44
2021/12/18 02:05:58;;;;;;;6.63;4.63;;;;;;;8.21;100.00;103949.25;4843179;29;20478;-47
2021/12/18 02:08:45;;;;;;;7.03;4.68;;;;;;;8.20;100.00;103950.25;4841105;29;20093;-48
2021/12/18 02:11:35;;;;;;;7.97;5.15;;;;;;;8.20;100.00;103948.41;4840787;29;20075;-47
2021/12/18 02:20:42;;;;;;;7.22;4.78;;;;;;;8.22;100.00;103957.22;4841065;29;20058;-48
2021/12/18 02:23:29;;;;;;;7.97;5.40;;;;;;;8.26;100.00;103952.28;4822202;29;20088;-48
2021/12/18 02:26:17;;;;;;;8.80;5.78;;;;;;;8.25;100.00;103942.41;4870073;29;20053;-49
2021/12/18 02:29:05;;;;;;;6.72;4.68;;;;;;;8.24;100.00;103938.03;4879824;29;20504;-48
2021/12/18 02:31:53;;;;;;;7.05;4.80;;;;;;;8.24;100.00;103933.44;4881061;29;20500;-49
2021/12/18 02:34:41;;;;;;;6.80;4.40;;;;;;;8.25;100.00;103928.84;4882146;29;20057;-47
2021/12/18 02:37:31;;;;;;;6.50;4.40;;;;;;;8.23;100.00;103931.75;4881490;29;20057;-44
2021/12/18 02:43:37;;;;;;;6.25;4.45;;;;;;;8.24;100.00;103933.44;4881569;29;20053;-45
2021/12/18 02:46:25;;;;;;;6.50;4.00;;;;;;;8.17;100.00;103926.16;4878659;29;20532;-47
2021/12/18 02:49:15;;;;;;;6.05;4.13;;;;;;;8.22;100.00;103924.59;4882087;29;20052;-45
2021/12/18 02:52:03;;;;;;;7.28;4.60;;;;;;;8.27;100.00;103916.81;4881214;29;20465;-47
2021/12/18 02:54:50;;;;;;;7.18;4.50;;;;;;;8.30;100.00;103907.47;4878738;29;20049;-47
2021/12/18 02:57:38;;;;;;;6.80;4.93;;;;;;;8.23;100.00;103915.47;4881260;29;20129;-44
2021/12/18 03:00:27;;;;;;;6.45;4.53;;;;;;;8.15;100.00;103906.47;4881857;29;20056;-44
2021/12/18 03:03:16;;;;;;;6.93;4.60;;;;;;;8.16;100.00;103908.19;4880855;29;20056;-44
2021/12/18 03:09:48;;;;;;;7.03;4.85;;;;;;;8.10;100.00;103910.59;4877608;29;20109;-46
2021/12/18 03:27:40;;;;;;;7.70;5.10;;;;;;;8.16;100.00;103897.34;4880958;29;20056;-50
2021/12/18 03:30:27;;;;;;;6.80;4.60;;;;;;;8.15;100.00;103895.63;4878180;29;20392;-47
2021/12/18 03:33:15;;;;;;;7.40;4.90;;;;;;;8.13;100.00;103898.53;4878694;29;20117;-48
2021/12/18 03:36:04;;;;;;;7.60;4.90;;;;;;;8.18;100.00;103900.69;4880760;29;20053;-51
2021/12/18 03:38:51;;;;;;;7.18;5.00;;;;;;;8.20;100.00;103904.06;4881095;29;20061;-47
2021/12/18 03:41:39;;;;;;;6.88;4.80;;;;;;;8.18;100.00;103901.56;4880857;29;20059;-48
2021/12/18 03:44:27;;;;;;;7.43;5.00;;;;;;;8.11;100.00;103893.25;4880229;29;20048;-48
2021/12/18 03:47:14;;;;;;;8.10;5.25;;;;;;;8.01;100.00;103903.50;4880478;29;20053;-43
2021/12/18 03:50:02;;;;;;;7.78;5.13;;;;;;;7.94;100.00;103904.34;4880585;29;20046;-47
2021/12/18 03:52:50;;;;;;;7.38;5.32;;;;;;;7.95;100.00;103906.88;4877662;29;20121;-48
2021/12/18 03:55:38;;;;;;;7.38;4.88;;;;;;;7.97;100.00;103904.84;4879954;29;20109;-47
2021/12/18 03:58:25;;;;;;;6.47;4.70;;;;;;;8.02;100.00;103891.59;4878175;29;20052;-53
2021/12/18 04:01:13;;;;;;;8.05;5.20;;;;;;;8.08;100.00;103896.34;4877911;29;20052;-48
2021/12/18 04:04:01;;;;;;;8.25;5.32;;;;;;;8.10;100.00;103902.44;4880593;29;20061;-51
2021/12/18 04:06:50;;;;;;;8.00;5.15;;;;;;;8.14;100.00;103891.22;4866081;29;20139;-46
2021/12/18 04:09:37;;;;;;;6.22;4.35;;;;;;;8.15;100.00;103895.63;4879562;29;20037;-47
2021/12/18 04:12:25;;;;;;;7.78;5.20;;;;;;;8.19;100.00;103891.53;4878213;29;20052;-49
2021/12/18 04:15:12;;;;;;;8.32;5.53;;;;;;;8.21;100.00;103897.66;4878146;29;20061;-49
2021/12/18 04:18:00;;;;;;;8.13;5.35;;;;;;;8.16;100.00;103897.34;4877540;29;20116;-44
2021/12/18 04:20:48;;;;;;;8.70;5.70;;;;;;;8.06;100.00;103895.66;4879982;29;20120;-46
2021/12/18 04:23:35;;;;;;;7.90;5.20;;;;;;;8.04;100.00;103889.56;4880010;29;20465;-47
2021/12/18 04:26:23;;;;;;;8.48;5.22;;;;;;;8.05;100.00;103893.94;4877155;29;20109;-49
2021/12/18 04:29:11;;;;;;;7.38;4.97;;;;;;;8.10;100.00;103897.00;4877362;29;20056;-49
2021/12/18 04:31:58;;;;;;;8.48;5.35;;;;;;;8.14;100.00;103902.94;4879758;29;20422;-50
2021/12/18 04:34:46;;;;;;;8.15;5.70;;;;;;;8.15;100.00;103906.47;4877371;29;20061;-48
2021/12/18 04:37:33;;;;;;;8.48;5.65;;;;;;;8.19;100.00;103902.41;4876825;29;20138;-47
2021/12/18 04:40:26;;;;;;;8.63;6.05;;;;;;;8.20;100.00;103910.38;4877361;29;20101;-48
2021/12/18 04:43:13;;;;;;;9.25;5.60;;;;;;;8.20;100.00;103909.50;4877281;29;20508;-47
2021/12/18 04:45:56;;;;;;;7.82;5.45;;;;;;;8.15;100.00;103911.91;4862193;29;20060;-48
2021/12/18 04:48:43;;;;;;;8.32;5.95;;;;;;;8.03;100.00;103909.59;4879374;29;20125;-47
2021/12/18 04:51:31;;;;;;;7.35;5.28;;;;;;;7.98;100.00;103906.53;4879760;29;20052;-49
2021/12/18 04:54:19;;;;;;;8.68;6.03;;;;;;;8.03;100.00;103904.16;4878775;29;20108;-47
2021/12/18 04:57:06;;;;;;;8.70;5.82;;;;;;;8.07;100.00;103910.09;4876087;29;20057;-48
2021/12/18 04:59:54;;;;;;;8.55;5.90;;;;;;;8.04;100.00;103911.28;4877439;29;20061;-47
2021/12/18 05:02:44;;;;;;;8.63;6.35;;;;;;;8.00;100.00;103912.63;4876856;29;20057;-47
2021/12/18 05:05:32;;;;;;;9.73;6.10;;;;;;;7.95;100.00;103917.75;4877291;29;20132;-46
2021/12/18 05:08:20;;;;;;;8.90;6.18;;;;;;;7.91;100.00;103916.41;4876209;29;20059;-51
2021/12/18 05:11:07;;;;;;;9.45;6.60;;;;;;;7.94;100.00;103916.06;4879370;29;20057;-47
2021/12/18 05:13:55;;;;;;;10.43;7.25;;;;;;;7.95;100.00;103922.34;4876947;29;20075;-49
2021/12/18 05:16:45;;;;;;;9.27;6.30;;;;;;;7.94;100.00;103926.94;4876680;29;20085;-46
2021/12/18 05:19:32;;;;;;;10.73;6.82;;;;;;;7.88;100.00;103919.47;4876942;29;20097;-45
2021/12/18 05:22:20;;;;;;;9.50;6.75;;;;;;;7.93;100.00;103919.78;4879489;29;20048;-46
2021/12/18 05:25:08;;;;;;;9.07;6.35;;;;;;;7.96;100.00;103913.16;4878965;29;20048;-45
2021/12/18 05:27:56;;;;;;;10.02;7.13;;;;;;;7.99;100.00;103921.81;4876435;29;20049;-52
2021/12/18 05:30:44;;;;;;;10.45;7.60;;;;;;;7.93;100.00;103918.94;4876812;29;20136;-48
2021/12/18 05:33:31;;;;;;;9.77;6.82;;;;;;;7.89;100.00;103923.91;4878287;29;20056;-49
2021/12/18 05:36:33;;;;;;;8.85;5.82;;;;;;;7.83;100.00;103919.16;4878552;29;20073;-48
2021/12/18 05:39:21;;;;;;;9.18;6.07;;;;;;;7.88;100.00;103922.19;4878783;29;20519;-49
2021/12/18 05:42:09;;;;;;;9.27;6.55;;;;;;;7.88;100.00;103923.03;4878919;29;20204;-48
2021/12/18 05:44:56;;;;;;;9.30;6.05;;;;;;;7.92;100.00;103922.69;4878728;29;20067;-47
2021/12/18 05:47:44;;;;;;;8.57;5.97;;;;;;;7.95;100.00;103923.19;4877692;29;20053;-50
2021/12/18 05:50:32;;;;;;;8.82;5.95;;;;;;;7.98;100.00;103928.25;4878766;29;20044;-46
2021/12/18 05:53:20;;;;;;;8.50;6.03;;;;;;;7.99;100.00;103924.53;4878805;29;20061;-46
2021/12/18 05:56:07;;;;;;;9.43;6.50;;;;;;;7.98;100.00;103917.41;4878392;29;20124;-49
2021/12/18 05:58:55;;;;;;;10.02;7.03;;;;;;;7.98;100.00;103917.41;4876363;29;20061;-48
2021/12/18 06:01:43;;;;;;;9.52;6.90;;;;;;;7.93;100.00;103914.34;4876295;29;20064;-48
2021/12/18 06:04:30;;;;;;;11.48;7.65;;;;;;;7.89;100.00;103913.03;4860273;29;20117;-42
2021/12/18 06:07:32;;;;;;;9.40;6.80;;;;;;;7.91;100.00;103916.41;4866006;29;20049;-47
2021/12/18 06:10:23;;;;;;;10.23;7.13;;;;;;;7.97;100.00;103904.00;4878881;29;20049;-48
2021/12/18 06:13:10;;;;;;;11.85;6.82;;;;;;;8.03;100.00;103911.44;4878737;29;20116;-46
2021/12/18 06:15:59;;;;;;;11.20;7.50;;;;;;;8.06;100.00;103900.25;4878411;29;20049;-48
2021/12/18 06:18:50;;;;;;;10.70;7.38;;;;;;;8.06;100.00;103906.53;4875612;29;20072;-45
2021/12/18 06:21:38;;;;;;;10.35;7.10;;;;;;;8.09;100.00;103903.44;4859805;29;20061;-47
2021/12/18 06:24:29;;;;;;;10.18;7.15;;;;;;;8.14;100.00;103900.22;4859667;29;20397;-48
2021/12/18 06:27:17;;;;;;;10.55;7.20;;;;;;;8.19;100.00;103902.41;4857640;29;20053;-47
2021/12/18 06:30:05;;;;;;;11.48;7.40;;;;;;;8.16;100.00;103905.47;4877411;29;20109;-48
2021/12/18 06:32:53;;;;;;;10.38;6.70;;;;;;;8.14;100.00;103904.81;4879008;29;20057;-46
2021/12/18 06:35:41;;;;;;;10.57;7.20;;;;;;;8.14;100.00;103902.94;4879908;29;20057;-47
2021/12/18 06:38:28;;;;;;;10.30;7.25;;;;;;;8.11;100.00;103904.13;4881303;29;20053;-47
2021/12/18 06:41:16;;;;;;;11.88;7.32;;;;;;;8.14;100.00;103899.38;4862990;29;20061;-47
2021/12/18 06:44:04;;;;;;;10.90;7.80;;;;;;;8.16;100.00;103913.63;4863310;29;20049;-47
2021/12/18 06:46:52;;;;;;;11.02;7.82;;;;;;;8.14;100.00;103916.50;4863010;29;20076;-47
2021/12/18 06:49:40;;;;;;;10.93;7.57;;;;;;;8.13;100.00;103909.38;4867396;29;20059;-45
2021/12/18 06:52:27;;;;;;;10.98;8.05;;;;;;;8.14;100.00;103907.53;4881467;29;20053;-49
2021/12/18 06:55:15;;;;;;;10.57;7.55;;;;;;;8.06;100.00;103909.25;4881515;29;20139;-48
2021/12/18 06:58:03;;;;;;;9.75;6.60;;;;;;;7.98;100.00;103906.53;4880264;29;20488;-48
2021/12/18 07:00:53;;;;;;;11.00;7.27;;;;;;;8.01;100.00;103910.75;4206059;29;10000824;-50
2021/12/18 07:03:41;;;;;;;9.95;6.97;;;;;;;8.03;100.00;103904.16;4879261;29;20285;-46
2021/12/18 07:06:29;;;;;;;10.15;6.53;;;;;;;8.07;100.00;103910.91;4881286;29;20056;-49
2021/12/18 07:09:16;;;;;;;12.32;7.10;;;;;;;8.08;100.00;103907.19;4880938;29;20506;-51
2021/12/18 07:11:58;;;;;;;10.68;7.70;;;;;;;8.04;100.00;103910.44;4864777;29;20060;-49
2021/12/18 07:14:47;;;;;;;10.70;7.60;;;;;;;7.98;100.00;103916.56;4881424;29;20223;-49
2021/12/18 07:17:34;;;;;;;11.48;8.02;;;;;;;7.93;100.00;103917.06;4881184;29;20420;-47
2021/12/18 07:20:12;;;;;;;10.13;7.15;;;;;;;7.83;100.00;103914.56;4863975;29;20064;-48
2021/12/18 07:23:00;;;;;;;10.27;6.22;;;;;;;7.80;100.00;103904.06;4880841;29;20065;-48
2021/12/18 07:25:48;;;;;;;10.70;6.35;;;;;;;7.85;100.00;103909.81;4880907;29;20082;-48
2021/12/18 07:28:36;;;;;;;10.63;6.80;;;;;;;7.93;100.00;103913.50;4880396;29;20060;-49
2021/12/18 07:31:23;;;;;;;10.25;6.60;;;;;;;7.92;100.00;103920.81;4867105;29;20068;-48
2021/12/18 07:34:11;;;;;;;9.15;6.60;;;;;;;7.86;100.00;103918.78;4880630;29;20045;-50
2021/12/18 07:37:03;;;;;;;10.88;7.43;;;;;;;7.78;100.00;103916.94;4880689;29;20064;-47
2021/12/18 07:39:52;;;;;;;10.70;7.25;;;;;;;7.62;100.00;103917.81;4866363;29;20061;-48
2021/12/18 07:42:39;;;;;;;11.18;7.72;;;;;;;7.65;100.00;103922.06;4878331;29;20136;-48
2021/12/18 07:45:28;;;;;;;12.30;7.78;;;;;;;7.72;100.00;103923.09;4877314;29;20056;-48
2021/12/18 07:48:16;;;;;;;12.48;7.70;;;;;;;7.72;100.00;103927.63;4877521;29;20532;-47
2021/12/18 07:51:04;;;;;;;12.07;7.82;;;;;;;7.72;100.00;103922.22;4880568;29;20056;-48
2021/12/18 07:53:51;;;;;;;10.35;7.15;;;;;;;7.73;100.00;103922.06;4880700;29;20057;-48
2021/12/18 07:56:40;;;;;;;10.55;6.63;;;;;;;7.77;100.00;103920.69;4877846;29;20097;-48
2021/12/18 07:59:27;;;;;;;9.48;5.88;;;;;;;7.78;100.00;103922.38;4877417;29;20056;-46
2021/12/18 08:02:15;;;;;;;8.65;5.57;;;;;;;7.75;100.00;103924.59;4869521;29;20121;-48
2021/12/18 08:05:03;;;;;;;8.65;5.70;;;;;;;7.72;100.00;103919.50;4870018;29;20049;-48
2021/12/18 08:07:51;;;;;;;9.70;5.35;;;;;;;7.73;100.00;103918.50;4869221;29;20453;-47
2021/12/18 08:10:39;;;;;;;8.27;5.10;;;;;;;7.71;100.00;103921.38;4878655;29;20057;-48
2021/12/18 08:13:27;;;;;;;8.88;5.32;;;;;;;7.73;100.00;103918.50;4880017;29;20527;-45
2021/12/18 08:16:15;;;;;;;8.32;4.95;;;;;;;7.78;100.00;103924.25;4877978;29;20389;-47
2021/12/18 08:19:02;;;;;;;9.40;5.70;;;;;;;7.82;100.00;103917.47;4877577;29;20124;-45
2021/12/18 08:21:50;;;;;;;8.68;5.60;;;;;;;7.85;100.00;103917.09;4879263;29;20069;-49
2021/12/18 08:24:38;;;;;;;8.57;5.35;;;;;;;7.85;100.00;103917.09;4877772;29;20124;-48
2021/12/18 08:27:25;;;;;;;8.75;5.13;;;;;;;7.90;100.00;103925.56;4877523;29;20064;-48
2021/12/18 08:30:13;;;;;;;7.30;4.65;;;;;;;7.79;100.00;103924.09;4879743;29;20068;-48
2021/12/18 08:33:01;;;;;;;7.47;4.50;;;;;;;7.68;100.00;103925.28;4876455;29;20049;-48
2021/12/18 08:35:49;;;;;;;6.68;4.60;;;;;;;7.55;100.00;103930.41;4877692;29;20100;-48
2021/12/18 08:38:37;;;;;;;7.03;4.55;;;;;;;7.46;100.00;103923.28;4876900;29;20591;-45
2021/12/18 08:41:24;;;;;;;6.75;4.25;;;;;;;7.41;100.00;103926.50;4880340;29;20064;-45
2021/12/18 08:44:13;;;;;;;7.70;4.00;;;;;;;7.47;100.00;103922.25;4879215;29;20065;-48
2021/12/18 08:47:01;;;;;;;7.25;4.13;;;;;;;7.43;100.00;103920.88;4876799;29;20061;-49
2021/12/18 08:49:48;;;;;;;6.15;3.83;;;;;;;7.36;100.00;103928.00;4879558;29;20045;-49
2021/12/18 08:52:37;;;;;;;7.18;4.40;;;;;;;7.41;100.00;103925.66;4878855;29;20057;-48
2021/12/18 08:55:24;;;;;;;5.25;3.65;;;;;;;7.45;100.00;103925.13;4860406;29;20050;-48
2021/12/18 08:58:12;;;;;;;5.43;3.50;;;;;;;7.50;100.00;103918.34;4860760;29;20049;-53
2021/12/18 09:01:00;;;;;;;6.40;3.88;;;;;;;7.53;100.00;103924.28;4860726;29;20110;-47
2021/12/18 09:03:48;;;;;;;5.82;3.45;;;;;;;7.60;100.00;103929.84;4865107;29;20060;-46
2021/12/18 09:06:36;;;;;;;5.00;3.35;;;;;;;7.62;100.00;103919.69;4865579;29;20057;-47
2021/12/18 09:09:24;;;;;;;4.10;3.13;;;;;;;7.66;100.00;103924.59;4879301;29;20052;-47
2021/12/18 09:12:12;;;;;;;5.15;3.20;;;;;;;7.69;100.00;103929.69;4879207;29;20070;-47
2021/12/18 09:15:00;;;;;;;6.53;3.67;;;;;;;7.77;100.00;103925.25;4861983;29;20056;-45
2021/12/18 09:17:47;;;;;;;5.68;3.70;;;;;;;7.76;100.00;103920.84;4876663;29;20060;-47
2021/12/18 09:20:35;;;;;;;6.70;2.92;;;;;;;7.79;100.00;103913.22;4865203;29;20049;-46
2021/12/18 09:23:23;;;;;;;7.47;3.80;;;;;;;7.85;100.00;103922.53;4864981;29;20094;-47
2021/12/18 09:26:10;;;;;;;7.05;3.95;;;;;;;7.87;100.00;103921.34;4864600;29;20060;-50
2021/12/18 09:28:58;;;;;;;6.50;3.63;;;;;;;7.84;100.00;103918.97;4876305;29;20057;-48
2021/12/18 09:31:46;;;;;;;6.07;3.78;;;;;;;7.80;100.00;103922.22;4872525;29;20067;-49
2021/12/18 09:34:27;;;;;;;6.60;3.80;;;;;;;7.82;100.00;103917.47;4861940;29;20053;-48
2021/12/18 09:37:14;;;;;;;8.05;4.30;;;;;;;7.69;100.00;103916.09;4877965;29;20060;-46
2021/12/18 09:40:03;;;;;;;8.85;4.32;;;;;;;7.60;100.00;103930.72;4873474;29;20068;-47
2021/12/18 09:42:43;;;;;;;7.25;4.07;;;;;;;7.63;100.00;103924.94;4862118;29;20048;-46
2021/12/18 09:45:31;;;;;;;7.13;4.18;;;;;;;7.65;100.00;103920.19;4878234;29;20508;-47
2021/12/18 09:48:21;;;;;;;6.90;3.65;;;;;;;7.66;100.00;103912.91;4879141;29;20056;-49
2021/12/18 09:51:18;;;;;;;5.38;3.40;;;;;;;7.58;100.00;103912.94;4193182;29;10001248;-45
2021/12/18 09:54:06;;;;;;;4.72;3.15;;;;;;;7.52;100.00;103922.56;4876848;29;20053;-47
2021/12/18 09:56:53;;;;;;;4.45;3.10;;;;;;;7.58;100.00;103916.47;4876378;29;20052;-48
2021/12/18 09:59:41;;;;;;;4.40;2.92;;;;;;;7.56;100.00;103910.38;4876731;29;20045;-47
2021/12/18 10:02:29;;;;;;;5.20;3.35;;;;;;;7.56;100.00;103917.66;4874617;29;20057;-47
2021/12/18 10:05:29;;;;;;;4.88;3.22;;;;;;;7.61;100.00;103909.84;4876595;29;20053;-52
2021/12/18 10:08:17;;;;;;;4.90;2.92;;;;;;;7.65;100.00;103909.34;4878420;29;20057;-46
2021/12/18 10:11:10;;;;;;;4.93;3.25;;;;;;;7.68;100.00;103908.16;4865453;29;20053;-49
2021/12/18 10:14:03;;;;;;;5.43;3.30;;;;;;;7.75;100.00;103905.59;4882092;29;20045;-49
2021/12/18 10:16:51;;;;;;;4.95;3.08;;;;;;;7.76;100.00;103902.69;4878026;29;20047;-48
2021/12/18 10:19:39;;;;;;;6.03;3.65;;;;;;;7.78;100.00;103895.22;4879474;29;20445;-51
2021/12/18 10:22:27;;;;;;;6.18;4.00;;;;;;;7.76;100.00;103891.00;4882091;29;20067;-49
2021/12/18 10:25:17;;;;;;;9.10;4.45;;;;;;;7.67;100.00;103892.88;4871751;29;20065;-48
2021/12/18 10:28:15;;;;;;;8.65;3.80;;;;;;;7.68;100.00;103895.41;4878155;29;20079;-48
2021/12/18 10:31:02;;;;;;;6.40;4.18;;;;;;;7.72;100.00;103892.34;4863159;29;20064;-47
2021/12/18 10:33:51;;;;;;;5.30;3.42;;;;;;;7.71;100.00;103893.38;4862711;29;20080;-48
2021/12/18 10:36:38;;;;;;;5.80;3.70;;;;;;;7.73;100.00;103894.06;4863655;29;20576;-48
2021/12/18 10:39:27;;;;;;;6.95;3.72;;;;;;;7.70;100.00;103892.56;4019937;29;10000885;-46
2021/12/18 10:42:16;;;;;;;5.63;3.35;;;;;;;7.72;100.00;103889.63;4879674;29;20064;-48
2021/12/18 10:45:16;;;;;;;5.20;3.30;;;;;;;7.76;100.00;103886.41;4875763;29;20053;-52
2021/12/18 10:48:05;;;;;;;4.07;3.15;;;;;;;7.77;100.00;103888.13;4882869;29;20045;-47
2021/12/18 10:50:53;;;;;;;6.03;3.03;;;;;;;7.74;100.00;103887.59;4900811;29;20040;-45
2021/12/18 10:53:41;;;;;;;3.97;2.90;;;;;;;7.72;100.00;103889.63;4900061;29;20064;-46
2021/12/18 10:56:34;;;;;;;3.88;2.92;;;;;;;7.71;100.00;103885.25;4900235;29;20469;-46
2021/12/18 10:59:25;;;;;;;4.45;2.92;;;;;;;7.71;100.00;103883.38;4899849;29;20059;-45
2021/12/18 11:02:15;;;;;;;3.85;3.00;;;;;;;7.67;100.00;103882.00;4900326;29;20408;-42
2021/12/18 11:05:18;;;;;;;3.10;2.80;;;;;;;7.63;100.00;103881.53;4899924;29;20045;-45
2021/12/18 11:08:11;;;;;;;4.80;3.17;;;;;;;7.56;100.00;103879.69;4899098;29;20052;-48
2021/12/18 11:14:16;;;;;;;5.65;2.90;;;;;;;7.20;100.00;103894.47;4899443;29;20129;-47
2021/12/18 11:16:56;;;;;;;5.28;2.70;;;;;;;7.22;100.00;103887.00;4904393;29;20407;-47
2021/12/18 11:19:26;;;;;;;5.55;2.90;;;;;;;7.31;100.00;103885.16;4918267;29;20589;-48
2021/12/18 11:22:00;;;;;;;4.43;3.05;;;;;;;7.34;100.00;103892.94;4918312;29;20063;-48
2021/12/18 11:24:57;;;;;;;3.50;2.95;;;;;;;7.36;100.00;103892.75;4911881;29;20151;-49
2021/12/18 11:27:25;;;;;;;4.35;3.10;;;;;;;7.37;100.00;103884.44;4882825;29;20408;-48
2021/12/18 11:30:08;;;;;;;4.68;3.10;;;;;;;7.41;100.00;103893.09;4899518;29;20052;-45
2021/12/18 11:32:42;;;;;;;3.83;3.00;;;;;;;7.46;100.00;103885.31;4899137;29;20048;-48
2021/12/18 11:35:20;;;;;;;4.88;2.90;;;;;;;7.51;100.00;103877.50;4898817;29;20466;-41
2021/12/18 11:37:56;;;;;;;3.38;2.75;;;;;;;7.52;100.00;103873.75;4899090;29;20048;-47
2021/12/18 11:40:31;;;;;;;5.35;2.78;;;;;;;7.51;100.00;103872.06;4899209;29;20048;-47
2021/12/18 11:42:59;;;;;;;6.15;3.58;;;;;;;7.46;100.00;103878.00;4896042;29;20056;-49
2021/12/18 11:45:34;;;;;;;3.80;2.80;;;;;;;7.50;100.00;103873.06;4898890;29;20048;-49
2021/12/18 11:48:03;;;;;;;4.07;2.70;;;;;;;7.34;100.00;103876.66;4898932;29;20048;-47
2021/12/18 11:50:34;;;;;;;4.90;3.20;;;;;;;7.24;100.00;103871.41;4898951;29;20044;-47
2021/12/18 11:53:13;;;;;;;4.53;2.50;;;;;;;7.21;100.00;103860.88;4882690;29;20164;-46
2021/12/18 11:55:50;;;;;;;2.38;2.05;;;;;;;7.14;100.00;103865.28;4899623;29;20059;-48
2021/12/18 11:58:25;;;;;;;3.13;2.20;;;;;;;7.19;100.00;103868.38;4898978;29;20045;-44
2021/12/18 12:01:07;;;;;;;5.40;2.60;;;;;;;7.23;100.00;103855.31;4898873;29;20111;-46
2021/12/18 12:03:43;;;;;;;6.72;4.28;;;;;;;7.17;100.00;103848.72;4882365;29;20255;-46
2021/12/18 12:06:28;;;;;;;2.22;2.08;;;;;;;7.14;100.00;103843.59;4898769;29;20056;-46
2021/12/18 12:12:07;;;;;;;3.20;2.35;;;;;;;7.32;100.00;103845.31;4880028;29;20096;-43
2021/12/18 12:14:37;;;;;;;2.30;2.10;;;;;;;7.34;100.00;103848.69;4879881;29;20060;-44
2021/12/18 12:17:15;;;;;;;2.20;2.00;;;;;;;7.39;100.00;103840.88;4880198;29;20049;-46
2021/12/18 12:19:52;;;;;;;2.75;2.38;;;;;;;7.43;100.00;103844.94;4898273;29;20044;-48
2021/12/18 12:22:43;;;;;;;3.95;2.45;;;;;;;7.42;100.00;103840.53;4881792;29;20500;-47
2021/12/18 12:25:18;;;;;;;3.10;2.75;;;;;;;7.31;100.00;103835.47;4898907;29;20048;-44
2021/12/18 12:28:10;;;;;;;3.75;2.65;;;;;;;7.31;100.00;103843.59;4897813;29;20045;-44
2021/12/18 12:30:43;;;;;;;8.38;2.75;;;;;;;7.23;100.00;103841.75;4890033;29;20068;-42
2021/12/18 12:33:27;;;;;;;2.60;2.30;;;;;;;7.02;100.00;103840.41;4896624;29;20054;-46
2021/12/18 12:36:08;;;;;;;3.05;2.05;;;;;;;7.02;100.00;103844.97;4897006;29;20045;-47
2021/12/18 12:38:43;;;;;;;3.42;2.20;;;;;;;7.09;100.00;103835.13;4896950;29;20083;-46
2021/12/18 12:41:37;;;;;;;2.42;2.22;;;;;;;7.06;100.00;103834.66;4880402;29;20148;-43
2021/12/18 12:44:18;;;;;;;2.40;2.03;;;;;;;6.93;100.00;103829.75;4893914;29;20420;-44
2021/12/18 12:46:46;;;;;;;2.97;2.00;;;;;;;7.02;100.00;103826.00;4881748;29;20055;-46
2021/12/18 12:49:18;;;;;;;3.70;2.33;;;;;;;7.10;100.00;103823.28;4897378;29;20091;-46
2021/12/18 12:51:58;;;;;;;2.85;2.20;;;;;;;7.17;100.00;103821.59;4897212;29;20060;-45
2021/12/18 12:55:02;;;;;;;4.57;2.72;;;;;;;7.19;100.00;103816.84;4887689;29;20068;-46
2021/12/18 12:57:30;;;;;;;2.50;2.30;;;;;;;7.20;100.00;103812.25;4898083;29;20045;-46
2021/12/18 12:59:58;;;;;;;2.50;2.20;;;;;;;7.12;100.00;103815.84;4884561;29;20049;-47
2021/12/18 13:02:27;;;;;;;3.72;2.50;;;;;;;7.02;100.00;103815.16;4862908;29;20076;-44
2021/12/18 13:05:12;;;;;;;2.08;1.95;;;;;;;6.87;100.00;103809.56;4862920;29;20064;-49
2021/12/18 13:07:48;;;;;;;2.40;2.20;;;;;;;6.86;100.00;103807.03;4879004;29;20144;-50
2021/12/18 13:10:25;;;;;;;2.83;2.20;;;;;;;6.83;100.00;103803.66;4890501;29;20040;-45
2021/12/18 13:13:07;;;;;;;2.38;2.03;;;;;;;6.79;100.00;103796.03;4897756;29;20044;-46
2021/12/18 13:15:49;;;;;;;2.45;2.25;;;;;;;6.94;100.00;103794.31;4897823;29;20044;-48
2021/12/18 13:18:18;;;;;;;2.00;1.90;;;;;;;6.92;100.00;103800.94;4897343;29;20045;-48
2021/12/18 13:20:55;;;;;;;2.40;2.20;;;;;;;6.87;100.00;103797.88;4880912;29;20495;-48
2021/12/18 13:23:42;;;;;;;2.50;2.15;;;;;;;6.83;100.00;103792.81;4896523;29;20048;-46
2021/12/18 13:26:12;;;;;;;4.88;2.20;;;;;;;6.81;100.00;103784.00;4897619;29;20052;-48
2021/12/18 13:29:00;;;;;;;2.47;2.20;;;;;;;6.81;100.00;103789.41;4897242;29;20044;-49
2021/12/18 13:31:30;;;;;;;2.15;1.95;;;;;;;6.89;100.00;103791.28;4895094;29;20048;-47
2021/12/18 13:34:08;;;;;;;3.05;2.25;;;;;;;6.95;100.00;103789.75;4897185;29;20495;-45
2021/12/18 13:36:56;;;;;;;2.30;2.10;;;;;;;6.86;100.00;103790.78;4897600;29;20407;-47
2021/12/18 13:39:29;;;;;;;3.45;2.55;;;;;;;6.88;100.00;103791.44;4896956;29;20534;-47
2021/12/18 13:42:06;;;;;;;3.40;2.28;;;;;;;6.89;100.00;103785.00;4896672;29;20379;-47
2021/12/18 13:44:42;;;;;;;;;;;;;;;6.93;100.00;103786.38;4897537;29;20048;-45
2021/12/18 13:47:34;;;;;;;3.65;2.95;;;;;;;6.80;100.00;103782.28;4897318;29;19927;-46
2021/12/18 13:50:14;;;;;;;2.70;2.33;;;;;;;6.85;100.00;103778.22;4882893;29;20060;-45